sensor_id;sensor_type;location;lat;lon;timestamp;P1;durP1;ratioP1;P2;durP2;ratioP2
22334;SDS011;11335;43.848;25.958;2022-11-15T00:00:43;15.63;;;9.95;;
22334;SDS011;11335;43.848;25.958;2022-11-15T00:03:28;20.15;;;10.73;;
22334;SDS011;11335;43.848;25.958;2022-11-15T00:06:14;17.20;;;9.90;;
22334;SDS011;11335;43.848;25.958;2022-11-15T00:09:00;17.23;;;10.68;;
22334;SDS011;11335;43.848;25.958;2022-11-15T00:11:45;14.63;;;9.60;;
22334;SDS011;11335;43.848;25.958;2022-11-15T00:14:31;14.13;;;9.75;;
22334;SDS011;11335;43.848;25.958;2022-11-15T00:17:17;16.20;;;9.73;;
22334;SDS011;11335;43.848;25.958;2022-11-15T00:20:02;14.52;;;9.60;;
22334;SDS011;11335;43.848;25.958;2022-11-15T00:22:48;17.45;;;10.95;;
22334;SDS011;11335;43.848;25.958;2022-11-15T00:25:33;17.13;;;10.32;;
22334;SDS011;11335;43.848;25.958;2022-11-15T00:28:19;17.98;;;10.77;;
22334;SDS011;11335;43.848;25.958;2022-11-15T00:31:06;13.98;;;9.13;;
22334;SDS011;11335;43.848;25.958;2022-11-15T00:33:51;15.52;;;9.90;;
22334;SDS011;11335;43.848;25.958;2022-11-15T00:36:37;14.93;;;10.05;;
22334;SDS011;11335;43.848;25.958;2022-11-15T00:39:23;12.55;;;9.45;;
22334;SDS011;11335;43.848;25.958;2022-11-15T00:42:08;14.90;;;9.90;;
22334;SDS011;11335;43.848;25.958;2022-11-15T00:44:54;13.63;;;9.63;;
22334;SDS011;11335;43.848;25.958;2022-11-15T00:47:39;14.23;;;10.30;;
22334;SDS011;11335;43.848;25.958;2022-11-15T00:50:25;12.75;;;9.07;;
22334;SDS011;11335;43.848;25.958;2022-11-15T00:53:10;16.13;;;9.52;;
22334;SDS011;11335;43.848;25.958;2022-11-15T00:55:56;13.13;;;9.63;;
22334;SDS011;11335;43.848;25.958;2022-11-15T00:58:41;14.98;;;9.70;;
22334;SDS011;11335;43.848;25.958;2022-11-15T01:01:27;13.90;;;9.20;;
22334;SDS011;11335;43.848;25.958;2022-11-15T01:04:13;15.52;;;9.82;;
22334;SDS011;11335;43.848;25.958;2022-11-15T01:06:59;16.30;;;10.77;;
22334;SDS011;11335;43.848;25.958;2022-11-15T01:09:44;14.10;;;10.02;;
22334;SDS011;11335;43.848;25.958;2022-11-15T01:12:30;14.45;;;9.55;;
22334;SDS011;11335;43.848;25.958;2022-11-15T01:15:16;14.25;;;9.88;;
22334;SDS011;11335;43.848;25.958;2022-11-15T01:18:01;16.05;;;9.68;;
22334;SDS011;11335;43.848;25.958;2022-11-15T01:20:47;15.25;;;9.38;;
22334;SDS011;11335;43.848;25.958;2022-11-15T01:23:32;16.33;;;10.05;;
22334;SDS011;11335;43.848;25.958;2022-11-15T01:26:18;15.45;;;9.32;;
22334;SDS011;11335;43.848;25.958;2022-11-15T01:29:04;12.90;;;8.55;;
22334;SDS011;11335;43.848;25.958;2022-11-15T01:31:49;14.05;;;8.93;;
22334;SDS011;11335;43.848;25.958;2022-11-15T01:34:35;13.75;;;9.00;;
22334;SDS011;11335;43.848;25.958;2022-11-15T01:37:20;13.85;;;9.35;;
22334;SDS011;11335;43.848;25.958;2022-11-15T01:40:06;13.13;;;8.88;;
22334;SDS011;11335;43.848;25.958;2022-11-15T01:42:52;13.63;;;9.07;;
22334;SDS011;11335;43.848;25.958;2022-11-15T01:45:37;14.73;;;9.90;;
22334;SDS011;11335;43.848;25.958;2022-11-15T01:48:24;15.27;;;9.93;;
22334;SDS011;11335;43.848;25.958;2022-11-15T01:51:11;14.98;;;9.50;;
22334;SDS011;11335;43.848;25.958;2022-11-15T01:54:02;17.45;;;10.10;;
22334;SDS011;11335;43.848;25.958;2022-11-15T01:56:59;18.20;;;9.80;;
22334;SDS011;11335;43.848;25.958;2022-11-15T01:59:46;16.00;;;9.23;;
22334;SDS011;11335;43.848;25.958;2022-11-15T02:02:32;15.77;;;10.20;;
22334;SDS011;11335;43.848;25.958;2022-11-15T02:05:18;15.95;;;10.25;;
22334;SDS011;11335;43.848;25.958;2022-11-15T02:08:04;16.33;;;10.00;;
22334;SDS011;11335;43.848;25.958;2022-11-15T02:10:50;15.52;;;9.60;;
22334;SDS011;11335;43.848;25.958;2022-11-15T02:13:36;17.92;;;10.80;;
22334;SDS011;11335;43.848;25.958;2022-11-15T02:22:04;18.55;;;10.63;;
22334;SDS011;11335;43.848;25.958;2022-11-15T02:30:48;15.98;;;10.25;;
22334;SDS011;11335;43.848;25.958;2022-11-15T02:33:39;18.15;;;10.02;;
22334;SDS011;11335;43.848;25.958;2022-11-15T02:42:04;16.15;;;9.80;;
22334;SDS011;11335;43.848;25.958;2022-11-15T02:45:14;15.13;;;9.82;;
22334;SDS011;11335;43.848;25.958;2022-11-15T02:48:02;18.63;;;9.88;;
22334;SDS011;11335;43.848;25.958;2022-11-15T02:50:49;17.98;;;9.43;;
22334;SDS011;11335;43.848;25.958;2022-11-15T02:53:34;16.55;;;9.43;;
22334;SDS011;11335;43.848;25.958;2022-11-15T02:56:20;14.82;;;9.10;;
22334;SDS011;11335;43.848;25.958;2022-11-15T02:59:13;15.45;;;9.00;;
22334;SDS011;11335;43.848;25.958;2022-11-15T03:11:07;15.18;;;9.23;;
22334;SDS011;11335;43.848;25.958;2022-11-15T03:13:59;16.08;;;9.07;;
22334;SDS011;11335;43.848;25.958;2022-11-15T03:16:50;16.40;;;9.82;;
22334;SDS011;11335;43.848;25.958;2022-11-15T03:19:43;14.18;;;9.20;;
22334;SDS011;11335;43.848;25.958;2022-11-15T03:22:30;15.30;;;9.40;;
22334;SDS011;11335;43.848;25.958;2022-11-15T03:25:19;16.95;;;9.52;;
22334;SDS011;11335;43.848;25.958;2022-11-15T03:28:06;16.73;;;10.27;;
22334;SDS011;11335;43.848;25.958;2022-11-15T03:30:54;14.30;;;9.38;;
22334;SDS011;11335;43.848;25.958;2022-11-15T03:33:40;15.90;;;9.75;;
22334;SDS011;11335;43.848;25.958;2022-11-15T03:36:26;15.27;;;9.13;;
22334;SDS011;11335;43.848;25.958;2022-11-15T03:39:12;17.23;;;9.85;;
22334;SDS011;11335;43.848;25.958;2022-11-15T03:47:34;13.18;;;8.82;;
22334;SDS011;11335;43.848;25.958;2022-11-15T03:50:21;18.63;;;9.75;;
22334;SDS011;11335;43.848;25.958;2022-11-15T03:53:07;16.55;;;10.05;;
22334;SDS011;11335;43.848;25.958;2022-11-15T03:55:53;16.17;;;9.85;;
22334;SDS011;11335;43.848;25.958;2022-11-15T03:58:39;17.08;;;9.73;;
22334;SDS011;11335;43.848;25.958;2022-11-15T04:01:24;18.38;;;10.45;;
22334;SDS011;11335;43.848;25.958;2022-11-15T04:04:10;17.65;;;10.80;;
22334;SDS011;11335;43.848;25.958;2022-11-15T04:06:55;19.92;;;10.85;;
22334;SDS011;11335;43.848;25.958;2022-11-15T04:09:41;17.35;;;10.50;;
22334;SDS011;11335;43.848;25.958;2022-11-15T04:12:45;19.98;;;10.85;;
22334;SDS011;11335;43.848;25.958;2022-11-15T04:15:34;20.85;;;10.88;;
22334;SDS011;11335;43.848;25.958;2022-11-15T04:18:19;17.35;;;10.00;;
22334;SDS011;11335;43.848;25.958;2022-11-15T04:21:05;19.20;;;10.90;;
22334;SDS011;11335;43.848;25.958;2022-11-15T04:24:09;17.77;;;10.85;;
22334;SDS011;11335;43.848;25.958;2022-11-15T04:26:57;18.90;;;10.85;;
22334;SDS011;11335;43.848;25.958;2022-11-15T04:29:43;20.83;;;11.30;;
22334;SDS011;11335;43.848;25.958;2022-11-15T04:32:28;19.67;;;10.80;;
22334;SDS011;11335;43.848;25.958;2022-11-15T04:35:14;17.48;;;11.07;;
22334;SDS011;11335;43.848;25.958;2022-11-15T04:38:00;17.65;;;10.68;;
22334;SDS011;11335;43.848;25.958;2022-11-15T04:40:46;21.52;;;11.50;;
22334;SDS011;11335;43.848;25.958;2022-11-15T04:43:31;21.27;;;11.35;;
22334;SDS011;11335;43.848;25.958;2022-11-15T04:46:17;19.65;;;11.70;;
22334;SDS011;11335;43.848;25.958;2022-11-15T04:49:02;19.75;;;11.50;;
22334;SDS011;11335;43.848;25.958;2022-11-15T04:51:49;21.17;;;12.32;;
22334;SDS011;11335;43.848;25.958;2022-11-15T04:54:34;21.60;;;11.98;;
22334;SDS011;11335;43.848;25.958;2022-11-15T04:57:20;24.35;;;11.95;;
22334;SDS011;11335;43.848;25.958;2022-11-15T05:00:07;18.15;;;10.43;;
22334;SDS011;11335;43.848;25.958;2022-11-15T05:02:53;20.73;;;12.43;;
22334;SDS011;11335;43.848;25.958;2022-11-15T05:05:57;21.85;;;10.80;;
22334;SDS011;11335;43.848;25.958;2022-11-15T05:08:44;20.75;;;11.57;;
22334;SDS011;11335;43.848;25.958;2022-11-15T05:11:29;21.88;;;11.13;;
22334;SDS011;11335;43.848;25.958;2022-11-15T05:14:15;20.60;;;11.85;;
22334;SDS011;11335;43.848;25.958;2022-11-15T05:17:01;18.33;;;11.15;;
22334;SDS011;11335;43.848;25.958;2022-11-15T05:19:46;21.63;;;11.75;;
22334;SDS011;11335;43.848;25.958;2022-11-15T05:22:32;21.92;;;11.63;;
22334;SDS011;11335;43.848;25.958;2022-11-15T05:25:17;18.35;;;11.15;;
22334;SDS011;11335;43.848;25.958;2022-11-15T05:28:03;17.55;;;10.23;;
22334;SDS011;11335;43.848;25.958;2022-11-15T05:30:49;23.63;;;11.75;;
22334;SDS011;11335;43.848;25.958;2022-11-15T05:33:37;23.55;;;11.35;;
22334;SDS011;11335;43.848;25.958;2022-11-15T05:36:42;20.85;;;11.52;;
22334;SDS011;11335;43.848;25.958;2022-11-15T05:39:28;68.82;;;39.40;;
22334;SDS011;11335;43.848;25.958;2022-11-15T05:42:14;26.20;;;13.55;;
22334;SDS011;11335;43.848;25.958;2022-11-15T05:45:01;19.88;;;10.98;;
22334;SDS011;11335;43.848;25.958;2022-11-15T05:47:47;23.45;;;11.50;;
22334;SDS011;11335;43.848;25.958;2022-11-15T05:50:34;26.52;;;11.52;;
22334;SDS011;11335;43.848;25.958;2022-11-15T05:53:21;23.30;;;12.30;;
22334;SDS011;11335;43.848;25.958;2022-11-15T05:56:08;22.35;;;11.35;;
22334;SDS011;11335;43.848;25.958;2022-11-15T05:58:54;20.75;;;11.77;;
22334;SDS011;11335;43.848;25.958;2022-11-15T06:01:40;19.90;;;10.93;;
22334;SDS011;11335;43.848;25.958;2022-11-15T06:04:26;21.10;;;11.43;;
22334;SDS011;11335;43.848;25.958;2022-11-15T06:07:12;23.02;;;11.50;;
22334;SDS011;11335;43.848;25.958;2022-11-15T06:09:57;21.63;;;11.75;;
22334;SDS011;11335;43.848;25.958;2022-11-15T06:12:43;23.13;;;11.98;;
22334;SDS011;11335;43.848;25.958;2022-11-15T06:15:28;25.67;;;11.63;;
22334;SDS011;11335;43.848;25.958;2022-11-15T06:18:14;22.73;;;11.57;;
22334;SDS011;11335;43.848;25.958;2022-11-15T06:21:00;25.02;;;11.35;;
22334;SDS011;11335;43.848;25.958;2022-11-15T06:23:45;23.95;;;11.05;;
22334;SDS011;11335;43.848;25.958;2022-11-15T06:26:31;20.73;;;11.52;;
22334;SDS011;11335;43.848;25.958;2022-11-15T06:29:16;27.48;;;11.65;;
22334;SDS011;11335;43.848;25.958;2022-11-15T06:32:02;26.25;;;11.70;;
22334;SDS011;11335;43.848;25.958;2022-11-15T06:34:48;21.40;;;11.15;;
22334;SDS011;11335;43.848;25.958;2022-11-15T06:37:33;24.88;;;11.02;;
22334;SDS011;11335;43.848;25.958;2022-11-15T06:40:19;19.23;;;10.57;;
22334;SDS011;11335;43.848;25.958;2022-11-15T06:43:05;20.17;;;11.25;;
22334;SDS011;11335;43.848;25.958;2022-11-15T06:45:51;21.98;;;11.02;;
22334;SDS011;11335;43.848;25.958;2022-11-15T06:48:36;19.35;;;11.10;;
22334;SDS011;11335;43.848;25.958;2022-11-15T06:51:22;22.17;;;11.43;;
22334;SDS011;11335;43.848;25.958;2022-11-15T06:54:07;28.83;;;12.63;;
22334;SDS011;11335;43.848;25.958;2022-11-15T06:56:53;29.98;;;13.13;;
22334;SDS011;11335;43.848;25.958;2022-11-15T06:59:38;25.98;;;11.63;;
22334;SDS011;11335;43.848;25.958;2022-11-15T07:02:24;27.25;;;12.60;;
22334;SDS011;11335;43.848;25.958;2022-11-15T07:05:10;23.65;;;12.63;;
22334;SDS011;11335;43.848;25.958;2022-11-15T07:07:57;28.05;;;12.55;;
22334;SDS011;11335;43.848;25.958;2022-11-15T07:10:42;22.40;;;12.13;;
22334;SDS011;11335;43.848;25.958;2022-11-15T07:13:29;27.88;;;13.25;;
22334;SDS011;11335;43.848;25.958;2022-11-15T07:16:14;26.05;;;12.75;;
22334;SDS011;11335;43.848;25.958;2022-11-15T07:19:00;27.35;;;13.18;;
22334;SDS011;11335;43.848;25.958;2022-11-15T07:21:46;22.85;;;12.23;;
22334;SDS011;11335;43.848;25.958;2022-11-15T07:24:32;27.08;;;13.25;;
22334;SDS011;11335;43.848;25.958;2022-11-15T07:27:17;23.30;;;12.20;;
22334;SDS011;11335;43.848;25.958;2022-11-15T07:30:03;24.40;;;12.05;;
22334;SDS011;11335;43.848;25.958;2022-11-15T07:33:07;29.55;;;12.68;;
22334;SDS011;11335;43.848;25.958;2022-11-15T07:35:52;26.13;;;12.18;;
22334;SDS011;11335;43.848;25.958;2022-11-15T07:38:38;23.40;;;12.13;;
22334;SDS011;11335;43.848;25.958;2022-11-15T07:41:24;24.08;;;12.18;;
22334;SDS011;11335;43.848;25.958;2022-11-15T07:44:09;21.83;;;11.85;;
22334;SDS011;11335;43.848;25.958;2022-11-15T07:46:55;27.75;;;13.25;;
22334;SDS011;11335;43.848;25.958;2022-11-15T07:49:40;23.23;;;12.90;;
22334;SDS011;11335;43.848;25.958;2022-11-15T07:52:26;20.42;;;11.63;;
22334;SDS011;11335;43.848;25.958;2022-11-15T07:55:11;30.73;;;12.82;;
22334;SDS011;11335;43.848;25.958;2022-11-15T07:58:01;20.40;;;11.52;;
22334;SDS011;11335;43.848;25.958;2022-11-15T08:00:46;28.63;;;12.95;;
22334;SDS011;11335;43.848;25.958;2022-11-15T08:03:32;22.60;;;12.55;;
22334;SDS011;11335;43.848;25.958;2022-11-15T08:06:18;21.15;;;12.10;;
22334;SDS011;11335;43.848;25.958;2022-11-15T08:09:04;21.48;;;11.75;;
22334;SDS011;11335;43.848;25.958;2022-11-15T08:11:49;22.70;;;11.73;;
22334;SDS011;11335;43.848;25.958;2022-11-15T08:14:35;23.92;;;11.85;;
22334;SDS011;11335;43.848;25.958;2022-11-15T08:17:20;21.73;;;12.23;;
22334;SDS011;11335;43.848;25.958;2022-11-15T08:20:06;24.55;;;12.38;;
22334;SDS011;11335;43.848;25.958;2022-11-15T08:22:52;27.92;;;13.13;;
22334;SDS011;11335;43.848;25.958;2022-11-15T08:25:38;29.42;;;13.88;;
22334;SDS011;11335;43.848;25.958;2022-11-15T08:28:23;31.10;;;14.13;;
22334;SDS011;11335;43.848;25.958;2022-11-15T08:31:12;27.90;;;13.70;;
22334;SDS011;11335;43.848;25.958;2022-11-15T08:33:58;27.48;;;13.95;;
22334;SDS011;11335;43.848;25.958;2022-11-15T08:36:44;25.63;;;13.60;;
22334;SDS011;11335;43.848;25.958;2022-11-15T08:39:29;37.45;;;21.13;;
22334;SDS011;11335;43.848;25.958;2022-11-15T08:42:15;32.97;;;16.27;;
22334;SDS011;11335;43.848;25.958;2022-11-15T08:45:01;33.90;;;17.63;;
22334;SDS011;11335;43.848;25.958;2022-11-15T08:47:47;33.20;;;16.85;;
22334;SDS011;11335;43.848;25.958;2022-11-15T08:50:33;28.30;;;14.63;;
22334;SDS011;11335;43.848;25.958;2022-11-15T08:53:18;26.55;;;14.75;;
22334;SDS011;11335;43.848;25.958;2022-11-15T08:56:06;29.63;;;15.05;;
22334;SDS011;11335;43.848;25.958;2022-11-15T08:58:52;27.10;;;14.50;;
22334;SDS011;11335;43.848;25.958;2022-11-15T09:01:38;28.00;;;15.52;;
22334;SDS011;11335;43.848;25.958;2022-11-15T09:04:23;25.88;;;15.10;;
22334;SDS011;11335;43.848;25.958;2022-11-15T09:07:10;28.40;;;15.20;;
22334;SDS011;11335;43.848;25.958;2022-11-15T09:09:56;26.63;;;14.63;;
22334;SDS011;11335;43.848;25.958;2022-11-15T09:12:41;25.50;;;13.82;;
22334;SDS011;11335;43.848;25.958;2022-11-15T09:15:27;22.65;;;13.80;;
22334;SDS011;11335;43.848;25.958;2022-11-15T09:18:12;30.92;;;14.80;;
22334;SDS011;11335;43.848;25.958;2022-11-15T09:20:58;32.50;;;15.30;;
22334;SDS011;11335;43.848;25.958;2022-11-15T09:23:44;26.98;;;14.73;;
22334;SDS011;11335;43.848;25.958;2022-11-15T09:26:30;25.15;;;13.82;;
22334;SDS011;11335;43.848;25.958;2022-11-15T09:29:15;26.33;;;14.35;;
22334;SDS011;11335;43.848;25.958;2022-11-15T09:32:01;28.15;;;15.00;;
22334;SDS011;11335;43.848;25.958;2022-11-15T09:34:46;32.22;;;15.15;;
22334;SDS011;11335;43.848;25.958;2022-11-15T09:37:32;32.05;;;15.18;;
22334;SDS011;11335;43.848;25.958;2022-11-15T09:40:17;33.50;;;15.27;;
22334;SDS011;11335;43.848;25.958;2022-11-15T09:48:57;28.58;;;14.93;;
22334;SDS011;11335;43.848;25.958;2022-11-15T09:51:45;25.13;;;13.80;;
22334;SDS011;11335;43.848;25.958;2022-11-15T09:54:36;25.33;;;13.95;;
22334;SDS011;11335;43.848;25.958;2022-11-15T10:00:31;28.85;;;15.60;;
22334;SDS011;11335;43.848;25.958;2022-11-15T10:06:00;28.60;;;15.98;;
22334;SDS011;11335;43.848;25.958;2022-11-15T10:11:37;33.50;;;15.68;;
22334;SDS011;11335;43.848;25.958;2022-11-15T10:14:23;31.55;;;16.52;;
22334;SDS011;11335;43.848;25.958;2022-11-15T10:17:34;29.33;;;15.68;;
22334;SDS011;11335;43.848;25.958;2022-11-15T10:23:05;28.52;;;15.65;;
22334;SDS011;11335;43.848;25.958;2022-11-15T10:25:54;30.75;;;16.02;;
22334;SDS011;11335;43.848;25.958;2022-11-15T10:28:40;28.83;;;16.27;;
22334;SDS011;11335;43.848;25.958;2022-11-15T10:31:27;28.55;;;16.15;;
22334;SDS011;11335;43.848;25.958;2022-11-15T10:34:14;28.73;;;15.45;;
22334;SDS011;11335;43.848;25.958;2022-11-15T10:37:00;29.05;;;15.73;;
22334;SDS011;11335;43.848;25.958;2022-11-15T10:40:01;27.95;;;16.27;;
22334;SDS011;11335;43.848;25.958;2022-11-15T10:42:47;31.17;;;17.48;;
22334;SDS011;11335;43.848;25.958;2022-11-15T10:45:33;27.92;;;16.52;;
22334;SDS011;11335;43.848;25.958;2022-11-15T10:48:20;32.15;;;16.40;;
22334;SDS011;11335;43.848;25.958;2022-11-15T10:51:06;29.38;;;17.23;;
22334;SDS011;11335;43.848;25.958;2022-11-15T10:54:04;37.78;;;19.98;;
22334;SDS011;11335;43.848;25.958;2022-11-15T10:56:52;31.38;;;17.20;;
22334;SDS011;11335;43.848;25.958;2022-11-15T10:59:38;31.75;;;17.38;;
22334;SDS011;11335;43.848;25.958;2022-11-15T11:10:57;28.30;;;16.15;;
22334;SDS011;11335;43.848;25.958;2022-11-15T11:13:43;28.67;;;15.40;;
22334;SDS011;11335;43.848;25.958;2022-11-15T11:16:34;28.13;;;16.40;;
22334;SDS011;11335;43.848;25.958;2022-11-15T11:19:31;30.65;;;16.75;;
22334;SDS011;11335;43.848;25.958;2022-11-15T11:28:10;29.92;;;17.40;;
22334;SDS011;11335;43.848;25.958;2022-11-15T11:31:23;32.65;;;17.67;;
22334;SDS011;11335;43.848;25.958;2022-11-15T11:48:57;28.38;;;17.02;;
22334;SDS011;11335;43.848;25.958;2022-11-15T11:52:08;27.08;;;16.30;;
22334;SDS011;11335;43.848;25.958;2022-11-15T11:54:59;34.83;;;16.88;;
22334;SDS011;11335;43.848;25.958;2022-11-15T11:57:56;27.52;;;15.95;;
22334;SDS011;11335;43.848;25.958;2022-11-15T12:00:47;27.08;;;16.48;;
22334;SDS011;11335;43.848;25.958;2022-11-15T12:03:39;28.00;;;16.30;;
22334;SDS011;11335;43.848;25.958;2022-11-15T12:09:13;27.88;;;15.10;;
22334;SDS011;11335;43.848;25.958;2022-11-15T12:15:10;29.00;;;16.75;;
22334;SDS011;11335;43.848;25.958;2022-11-15T12:17:57;43.70;;;16.85;;
22334;SDS011;11335;43.848;25.958;2022-11-15T12:21:08;25.33;;;15.32;;
22334;SDS011;11335;43.848;25.958;2022-11-15T12:24:00;31.88;;;17.88;;
22334;SDS011;11335;43.848;25.958;2022-11-15T12:27:03;28.95;;;17.25;;
22334;SDS011;11335;43.848;25.958;2022-11-15T12:29:52;32.35;;;16.88;;
22334;SDS011;11335;43.848;25.958;2022-11-15T12:32:39;28.13;;;16.70;;
22334;SDS011;11335;43.848;25.958;2022-11-15T12:35:40;27.92;;;17.23;;
22334;SDS011;11335;43.848;25.958;2022-11-15T12:39:08;30.48;;;17.55;;
22334;SDS011;11335;43.848;25.958;2022-11-15T12:41:38;29.48;;;18.15;;
22334;SDS011;11335;43.848;25.958;2022-11-15T12:47:23;28.58;;;18.00;;
22334;SDS011;11335;43.848;25.958;2022-11-15T12:50:12;30.38;;;17.95;;
22334;SDS011;11335;43.848;25.958;2022-11-15T12:58:55;31.38;;;18.25;;
22334;SDS011;11335;43.848;25.958;2022-11-15T13:04:27;36.10;;;18.95;;
22334;SDS011;11335;43.848;25.958;2022-11-15T13:13:15;38.38;;;21.67;;
22334;SDS011;11335;43.848;25.958;2022-11-15T13:16:20;30.55;;;18.73;;
22334;SDS011;11335;43.848;25.958;2022-11-15T13:19:09;27.60;;;17.08;;
22334;SDS011;11335;43.848;25.958;2022-11-15T13:21:55;31.15;;;17.35;;
22334;SDS011;11335;43.848;25.958;2022-11-15T13:25:00;33.25;;;18.90;;
22334;SDS011;11335;43.848;25.958;2022-11-15T13:27:49;33.55;;;18.15;;
22334;SDS011;11335;43.848;25.958;2022-11-15T13:30:35;29.70;;;17.42;;
22334;SDS011;11335;43.848;25.958;2022-11-15T13:33:27;26.05;;;16.70;;
22334;SDS011;11335;43.848;25.958;2022-11-15T13:39:04;28.70;;;17.40;;
22334;SDS011;11335;43.848;25.958;2022-11-15T13:41:50;26.65;;;16.63;;
22334;SDS011;11335;43.848;25.958;2022-11-15T13:44:36;26.17;;;16.13;;
22334;SDS011;11335;43.848;25.958;2022-11-15T13:47:22;27.15;;;16.98;;
22334;SDS011;11335;43.848;25.958;2022-11-15T13:50:10;34.60;;;19.10;;
22334;SDS011;11335;43.848;25.958;2022-11-15T13:52:57;30.80;;;18.10;;
22334;SDS011;11335;43.848;25.958;2022-11-15T13:55:44;30.98;;;17.83;;
22334;SDS011;11335;43.848;25.958;2022-11-15T13:58:29;30.73;;;19.08;;
22334;SDS011;11335;43.848;25.958;2022-11-15T14:01:17;35.08;;;18.95;;
22334;SDS011;11335;43.848;25.958;2022-11-15T14:04:04;34.60;;;19.27;;
22334;SDS011;11335;43.848;25.958;2022-11-15T14:06:52;32.80;;;18.75;;
22334;SDS011;11335;43.848;25.958;2022-11-15T14:09:39;31.08;;;18.17;;
22334;SDS011;11335;43.848;25.958;2022-11-15T14:18:38;35.85;;;17.98;;
22334;SDS011;11335;43.848;25.958;2022-11-15T14:21:21;30.10;;;17.85;;
22334;SDS011;11335;43.848;25.958;2022-11-15T14:24:19;31.58;;;17.83;;
22334;SDS011;11335;43.848;25.958;2022-11-15T14:30:16;30.02;;;17.48;;
22334;SDS011;11335;43.848;25.958;2022-11-15T14:33:02;28.60;;;16.90;;
22334;SDS011;11335;43.848;25.958;2022-11-15T14:36:02;34.58;;;18.95;;
22334;SDS011;11335;43.848;25.958;2022-11-15T14:38:48;33.10;;;19.20;;
22334;SDS011;11335;43.848;25.958;2022-11-15T14:41:35;39.10;;;22.20;;
22334;SDS011;11335;43.848;25.958;2022-11-15T14:44:23;34.17;;;19.23;;
22334;SDS011;11335;43.848;25.958;2022-11-15T14:47:08;34.60;;;19.40;;
22334;SDS011;11335;43.848;25.958;2022-11-15T14:49:54;34.60;;;18.77;;
22334;SDS011;11335;43.848;25.958;2022-11-15T14:52:39;33.90;;;18.60;;
22334;SDS011;11335;43.848;25.958;2022-11-15T14:55:30;40.28;;;19.17;;
22334;SDS011;11335;43.848;25.958;2022-11-15T14:58:17;34.40;;;18.25;;
22334;SDS011;11335;43.848;25.958;2022-11-15T15:01:03;36.65;;;19.48;;
22334;SDS011;11335;43.848;25.958;2022-11-15T15:03:54;36.67;;;19.60;;
22334;SDS011;11335;43.848;25.958;2022-11-15T15:06:44;39.80;;;20.38;;
22334;SDS011;11335;43.848;25.958;2022-11-15T15:09:29;33.72;;;18.88;;
22334;SDS011;11335;43.848;25.958;2022-11-15T15:12:16;35.90;;;20.15;;
22334;SDS011;11335;43.848;25.958;2022-11-15T15:15:02;36.28;;;19.48;;
22334;SDS011;11335;43.848;25.958;2022-11-15T15:17:48;36.17;;;20.17;;
22334;SDS011;11335;43.848;25.958;2022-11-15T15:20:34;36.28;;;20.48;;
22334;SDS011;11335;43.848;25.958;2022-11-15T15:23:20;36.95;;;21.25;;
22334;SDS011;11335;43.848;25.958;2022-11-15T15:26:06;40.75;;;21.60;;
22334;SDS011;11335;43.848;25.958;2022-11-15T15:28:52;39.10;;;21.27;;
22334;SDS011;11335;43.848;25.958;2022-11-15T15:31:37;40.30;;;22.20;;
22334;SDS011;11335;43.848;25.958;2022-11-15T15:34:23;39.40;;;20.85;;
22334;SDS011;11335;43.848;25.958;2022-11-15T15:39:55;42.17;;;21.30;;
22334;SDS011;11335;43.848;25.958;2022-11-15T15:42:41;39.42;;;20.75;;
22334;SDS011;11335;43.848;25.958;2022-11-15T15:45:27;38.28;;;21.33;;
22334;SDS011;11335;43.848;25.958;2022-11-15T15:48:14;41.28;;;21.98;;
22334;SDS011;11335;43.848;25.958;2022-11-15T15:51:00;42.45;;;20.80;;
22334;SDS011;11335;43.848;25.958;2022-11-15T15:53:45;42.08;;;21.83;;
22334;SDS011;11335;43.848;25.958;2022-11-15T15:56:31;43.72;;;22.02;;
22334;SDS011;11335;43.848;25.958;2022-11-15T15:59:16;41.50;;;21.08;;
22334;SDS011;11335;43.848;25.958;2022-11-15T16:02:02;41.67;;;21.70;;
22334;SDS011;11335;43.848;25.958;2022-11-15T16:04:48;39.22;;;21.10;;
22334;SDS011;11335;43.848;25.958;2022-11-15T16:07:33;39.00;;;20.42;;
22334;SDS011;11335;43.848;25.958;2022-11-15T16:13:04;40.60;;;21.95;;
22334;SDS011;11335;43.848;25.958;2022-11-15T16:15:51;38.70;;;19.20;;
22334;SDS011;11335;43.848;25.958;2022-11-15T16:18:37;41.90;;;22.52;;
22334;SDS011;11335;43.848;25.958;2022-11-15T16:21:23;41.35;;;20.58;;
22334;SDS011;11335;43.848;25.958;2022-11-15T16:24:09;42.30;;;21.63;;
22334;SDS011;11335;43.848;25.958;2022-11-15T16:26:54;44.92;;;21.58;;
22334;SDS011;11335;43.848;25.958;2022-11-15T16:29:40;47.67;;;22.35;;
22334;SDS011;11335;43.848;25.958;2022-11-15T16:32:25;39.42;;;19.80;;
22334;SDS011;11335;43.848;25.958;2022-11-15T16:35:12;38.88;;;20.65;;
22334;SDS011;11335;43.848;25.958;2022-11-15T16:37:58;39.67;;;20.95;;
22334;SDS011;11335;43.848;25.958;2022-11-15T16:40:44;40.92;;;20.33;;
22334;SDS011;11335;43.848;25.958;2022-11-15T16:43:29;40.63;;;20.42;;
22334;SDS011;11335;43.848;25.958;2022-11-15T16:46:19;37.72;;;20.40;;
22334;SDS011;11335;43.848;25.958;2022-11-15T16:49:05;43.40;;;21.95;;
22334;SDS011;11335;43.848;25.958;2022-11-15T16:51:53;42.80;;;21.48;;
22334;SDS011;11335;43.848;25.958;2022-11-15T16:54:39;39.25;;;19.05;;
22334;SDS011;11335;43.848;25.958;2022-11-15T16:57:24;39.30;;;19.38;;
22334;SDS011;11335;43.848;25.958;2022-11-15T17:00:13;39.42;;;20.83;;
22334;SDS011;11335;43.848;25.958;2022-11-15T17:03:00;39.80;;;20.42;;
22334;SDS011;11335;43.848;25.958;2022-11-15T17:05:48;48.33;;;24.33;;
22334;SDS011;11335;43.848;25.958;2022-11-15T17:08:33;41.97;;;21.42;;
22334;SDS011;11335;43.848;25.958;2022-11-15T17:11:20;39.50;;;20.98;;
22334;SDS011;11335;43.848;25.958;2022-11-15T17:14:06;39.72;;;20.52;;
22334;SDS011;11335;43.848;25.958;2022-11-15T17:16:51;45.40;;;21.10;;
22334;SDS011;11335;43.848;25.958;2022-11-15T17:19:37;41.10;;;21.10;;
22334;SDS011;11335;43.848;25.958;2022-11-15T17:22:23;39.97;;;21.35;;
22334;SDS011;11335;43.848;25.958;2022-11-15T17:25:09;45.33;;;22.17;;
22334;SDS011;11335;43.848;25.958;2022-11-15T17:27:55;41.90;;;22.15;;
22334;SDS011;11335;43.848;25.958;2022-11-15T17:30:41;43.72;;;22.15;;
22334;SDS011;11335;43.848;25.958;2022-11-15T17:33:27;44.22;;;22.52;;
22334;SDS011;11335;43.848;25.958;2022-11-15T17:36:13;40.45;;;21.15;;
22334;SDS011;11335;43.848;25.958;2022-11-15T17:38:58;42.25;;;21.60;;
22334;SDS011;11335;43.848;25.958;2022-11-15T17:41:44;42.65;;;22.52;;
22334;SDS011;11335;43.848;25.958;2022-11-15T17:44:30;40.55;;;21.55;;
22334;SDS011;11335;43.848;25.958;2022-11-15T17:47:16;38.90;;;20.85;;
22334;SDS011;11335;43.848;25.958;2022-11-15T17:50:02;37.40;;;19.52;;
22334;SDS011;11335;43.848;25.958;2022-11-15T17:52:47;36.13;;;20.20;;
22334;SDS011;11335;43.848;25.958;2022-11-15T17:55:33;39.00;;;21.25;;
22334;SDS011;11335;43.848;25.958;2022-11-15T17:58:18;35.85;;;19.63;;
22334;SDS011;11335;43.848;25.958;2022-11-15T18:03:50;41.63;;;21.88;;
22334;SDS011;11335;43.848;25.958;2022-11-15T18:06:36;43.28;;;21.73;;
22334;SDS011;11335;43.848;25.958;2022-11-15T18:09:21;38.47;;;20.92;;